General Aviation Weather

Text Reports

Enter one or more of the following location identifiers separated by a space:

Zip Code, Four-Character ICAO or Three-Character IATA airport codes.

METAR - Aviation Routine Weather Report
FLKK - Kenneth Kaunda Intl,
Updated at 2:00 AM GMT on April 21, 2015 (4:00 AM CAT):
METAR FLKK 210200Z 12003KT 9999 SCT003 16/13 Q1021
TAF - Terminal Area Forecast
FLKK - Kenneth Kaunda Intl,
Updated at 2:00 AM GMT on April 21, 2015 (4:00 AM CAT):
TAF FLKK 201000Z 2012/2118 10010KT SCT030TCU BKN030
              TEMPO 2013/2016 8000 TSRA
              BECMG 2100/2108 09009KT 9999 SCT090
              BECMG 2109/2118 13007KT 9999 SCT025=
Decoded:
ID: FLKK
REPORT TIME: 20 10: 0
VALID TIME: 20 April AT 12:00Z to 21 April AT 18:00Z.
INITIAL WX
   WINDS: 100 AT 10
   CLOUDS: 30 SCT WITH TCU
   CLOUDS: 30 BKN
TEMPORARY WX FROM 13Z TO 16Z
   VISIBILITY: 8.0 MILES
   COMMENTS: 000 FTBO SLLP 201047 TAF SLLP 201030Z 2012/2112 03005KT 9999 FEW015 SCT070 TX14/2020Z TN03/2110Z 
TEMPORARY WX FROM 19Z TO 21Z
   WINDS: 300 AT 12
   VISIBILITY: 5.0 MILES
   WEATHER: VCTSSH
   CLOUDS: 17 SCT
   CLOUDS: 20 FEW WITH CB
   CLOUDS: 70 SCT
TEMPORARY WX FROM 07Z TO 10Z
   VISIBILITY: 2.5 MILES
   WEATHER: VCFG
   CLOUDS: 2 FEW
   COMMENTS: = 

PIREP - Pilot Weather Report
FLKK - Kenneth Kaunda Intl,
Updated at 2:00 AM GMT on April 21, 2015 (4:00 AM CAT):
No PIREP is currently available for this location.
AIRMET - Airmens Meteorological Information
FLKK - Kenneth Kaunda Intl,
Updated at 2:00 AM GMT on April 21, 2015 (4:00 AM CAT):
No AIRMET is currently available for this location.
SIGMET - Significant Meteorological Information
FLKK - Kenneth Kaunda Intl,
Updated at 2:00 AM GMT on April 21, 2015 (4:00 AM CAT):
No SIGMET is currently available for this location.
NOTAM - Notice to Airmen
FLKK - Kenneth Kaunda Intl,
Updated at 2:00 AM GMT on April 21, 2015 (4:00 AM CAT):
No NOTAM is currently available for this location.
Forecast Area
FLKK - Kenneth Kaunda Intl,
Updated at 2:00 AM GMT on April 21, 2015 (4:00 AM CAT):
No NOTAM is currently available for this location.
Aviation Weather Maps